sensor_id;sensor_type;location;lat;lon;timestamp;P1;durP1;ratioP1;P2;durP2;ratioP2
40515;SDS011;26216;53.724;9.898;2023-07-31T00:00:28;2.13;;;0.65;;
40515;SDS011;26216;53.724;9.898;2023-07-31T00:02:54;1.08;;;0.65;;
40515;SDS011;26216;53.724;9.898;2023-07-31T00:05:20;2.42;;;0.73;;
40515;SDS011;26216;53.724;9.898;2023-07-31T00:07:47;1.33;;;0.60;;
40515;SDS011;26216;53.724;9.898;2023-07-31T00:10:12;2.60;;;0.85;;
40515;SDS011;26216;53.724;9.898;2023-07-31T00:12:39;1.85;;;0.88;;
40515;SDS011;26216;53.724;9.898;2023-07-31T00:15:07;2.03;;;0.70;;
40515;SDS011;26216;53.724;9.898;2023-07-31T00:17:33;4.90;;;0.90;;
40515;SDS011;26216;53.724;9.898;2023-07-31T00:19:59;2.25;;;1.17;;
40515;SDS011;26216;53.724;9.898;2023-07-31T00:22:25;3.50;;;1.02;;
40515;SDS011;26216;53.724;9.898;2023-07-31T00:24:51;1.85;;;1.00;;
40515;SDS011;26216;53.724;9.898;2023-07-31T00:27:17;3.55;;;0.77;;
40515;SDS011;26216;53.724;9.898;2023-07-31T00:29:43;2.08;;;0.95;;
40515;SDS011;26216;53.724;9.898;2023-07-31T00:32:08;1.58;;;0.70;;
40515;SDS011;26216;53.724;9.898;2023-07-31T00:34:34;2.35;;;0.75;;
40515;SDS011;26216;53.724;9.898;2023-07-31T00:37:00;4.35;;;0.77;;
40515;SDS011;26216;53.724;9.898;2023-07-31T00:39:26;2.83;;;1.00;;
40515;SDS011;26216;53.724;9.898;2023-07-31T00:41:52;2.97;;;0.90;;
40515;SDS011;26216;53.724;9.898;2023-07-31T00:44:17;4.10;;;1.10;;
40515;SDS011;26216;53.724;9.898;2023-07-31T00:46:44;2.42;;;0.80;;
40515;SDS011;26216;53.724;9.898;2023-07-31T00:49:10;2.58;;;1.08;;
40515;SDS011;26216;53.724;9.898;2023-07-31T00:51:37;3.17;;;1.00;;
40515;SDS011;26216;53.724;9.898;2023-07-31T00:54:02;2.15;;;0.90;;
40515;SDS011;26216;53.724;9.898;2023-07-31T00:56:29;3.33;;;0.98;;
40515;SDS011;26216;53.724;9.898;2023-07-31T00:58:55;1.42;;;0.70;;
40515;SDS011;26216;53.724;9.898;2023-07-31T01:01:21;1.98;;;1.00;;
40515;SDS011;26216;53.724;9.898;2023-07-31T01:03:47;1.95;;;0.90;;
40515;SDS011;26216;53.724;9.898;2023-07-31T01:13:53;2.25;;;1.08;;
40515;SDS011;26216;53.724;9.898;2023-07-31T01:16:20;3.28;;;1.00;;
40515;SDS011;26216;53.724;9.898;2023-07-31T01:18:46;4.18;;;1.38;;
40515;SDS011;26216;53.724;9.898;2023-07-31T01:27:06;1.15;;;0.70;;
40515;SDS011;26216;53.724;9.898;2023-07-31T01:32:40;2.17;;;1.15;;
40515;SDS011;26216;53.724;9.898;2023-07-31T01:35:07;1.40;;;0.85;;
40515;SDS011;26216;53.724;9.898;2023-07-31T01:37:33;2.60;;;1.00;;
40515;SDS011;26216;53.724;9.898;2023-07-31T01:39:59;2.10;;;1.00;;
40515;SDS011;26216;53.724;9.898;2023-07-31T01:42:25;2.35;;;0.80;;
40515;SDS011;26216;53.724;9.898;2023-07-31T01:44:51;6.35;;;1.00;;
40515;SDS011;26216;53.724;9.898;2023-07-31T01:47:17;4.22;;;1.60;;
40515;SDS011;26216;53.724;9.898;2023-07-31T01:49:43;2.78;;;1.20;;
40515;SDS011;26216;53.724;9.898;2023-07-31T01:52:08;3.97;;;1.25;;
40515;SDS011;26216;53.724;9.898;2023-07-31T01:54:34;2.67;;;1.30;;
40515;SDS011;26216;53.724;9.898;2023-07-31T01:57:01;2.95;;;1.20;;
40515;SDS011;26216;53.724;9.898;2023-07-31T01:59:27;2.10;;;1.00;;
40515;SDS011;26216;53.724;9.898;2023-07-31T02:01:54;1.75;;;1.00;;
40515;SDS011;26216;53.724;9.898;2023-07-31T02:04:20;3.28;;;1.30;;
40515;SDS011;26216;53.724;9.898;2023-07-31T02:06:45;2.50;;;1.17;;
40515;SDS011;26216;53.724;9.898;2023-07-31T02:09:11;4.10;;;1.15;;
40515;SDS011;26216;53.724;9.898;2023-07-31T02:11:37;3.03;;;1.10;;
40515;SDS011;26216;53.724;9.898;2023-07-31T02:14:03;1.98;;;1.10;;
40515;SDS011;26216;53.724;9.898;2023-07-31T02:16:28;2.83;;;1.20;;
40515;SDS011;26216;53.724;9.898;2023-07-31T02:18:54;2.17;;;1.08;;
40515;SDS011;26216;53.724;9.898;2023-07-31T02:21:20;2.95;;;1.27;;
40515;SDS011;26216;53.724;9.898;2023-07-31T02:23:46;2.60;;;1.20;;
40515;SDS011;26216;53.724;9.898;2023-07-31T02:26:12;3.63;;;1.45;;
40515;SDS011;26216;53.724;9.898;2023-07-31T02:28:37;2.15;;;1.20;;
40515;SDS011;26216;53.724;9.898;2023-07-31T02:31:03;1.77;;;1.10;;
40515;SDS011;26216;53.724;9.898;2023-07-31T02:33:29;2.08;;;1.10;;
40515;SDS011;26216;53.724;9.898;2023-07-31T02:35:55;3.15;;;1.30;;
40515;SDS011;26216;53.724;9.898;2023-07-31T02:38:21;1.67;;;1.05;;
40515;SDS011;26216;53.724;9.898;2023-07-31T02:40:46;3.88;;;1.40;;
40515;SDS011;26216;53.724;9.898;2023-07-31T02:43:13;2.25;;;1.10;;
40515;SDS011;26216;53.724;9.898;2023-07-31T02:45:39;2.17;;;0.95;;
40515;SDS011;26216;53.724;9.898;2023-07-31T02:48:05;3.17;;;1.35;;
40515;SDS011;26216;53.724;9.898;2023-07-31T02:50:31;3.80;;;1.30;;
40515;SDS011;26216;53.724;9.898;2023-07-31T02:52:58;2.38;;;1.50;;
40515;SDS011;26216;53.724;9.898;2023-07-31T02:55:24;3.17;;;1.20;;
40515;SDS011;26216;53.724;9.898;2023-07-31T02:57:50;2.85;;;1.15;;
40515;SDS011;26216;53.724;9.898;2023-07-31T03:00:17;3.78;;;1.38;;
40515;SDS011;26216;53.724;9.898;2023-07-31T03:02:43;1.92;;;1.30;;
40515;SDS011;26216;53.724;9.898;2023-07-31T03:05:09;2.88;;;1.30;;
40515;SDS011;26216;53.724;9.898;2023-07-31T03:07:35;2.88;;;1.30;;
40515;SDS011;26216;53.724;9.898;2023-07-31T03:10:01;3.05;;;1.30;;
40515;SDS011;26216;53.724;9.898;2023-07-31T03:12:27;2.47;;;1.23;;
40515;SDS011;26216;53.724;9.898;2023-07-31T03:14:52;2.47;;;1.20;;
40515;SDS011;26216;53.724;9.898;2023-07-31T03:17:18;2.67;;;1.52;;
40515;SDS011;26216;53.724;9.898;2023-07-31T03:19:44;2.30;;;1.30;;
40515;SDS011;26216;53.724;9.898;2023-07-31T03:22:10;2.00;;;1.30;;
40515;SDS011;26216;53.724;9.898;2023-07-31T03:24:35;2.80;;;1.23;;
40515;SDS011;26216;53.724;9.898;2023-07-31T03:27:01;2.47;;;1.30;;
40515;SDS011;26216;53.724;9.898;2023-07-31T03:29:27;2.50;;;1.30;;
40515;SDS011;26216;53.724;9.898;2023-07-31T03:31:53;2.00;;;1.30;;
40515;SDS011;26216;53.724;9.898;2023-07-31T03:34:19;1.90;;;1.10;;
40515;SDS011;26216;53.724;9.898;2023-07-31T03:36:45;3.88;;;1.20;;
40515;SDS011;26216;53.724;9.898;2023-07-31T03:39:10;3.28;;;1.50;;
40515;SDS011;26216;53.724;9.898;2023-07-31T03:41:36;2.65;;;1.40;;
40515;SDS011;26216;53.724;9.898;2023-07-31T03:44:02;3.45;;;1.45;;
40515;SDS011;26216;53.724;9.898;2023-07-31T03:46:28;1.90;;;1.13;;
40515;SDS011;26216;53.724;9.898;2023-07-31T03:48:54;2.22;;;1.15;;
40515;SDS011;26216;53.724;9.898;2023-07-31T03:51:20;3.45;;;1.40;;
40515;SDS011;26216;53.724;9.898;2023-07-31T03:53:45;2.90;;;1.30;;
40515;SDS011;26216;53.724;9.898;2023-07-31T03:56:11;3.05;;;1.30;;
40515;SDS011;26216;53.724;9.898;2023-07-31T03:58:37;2.17;;;1.20;;
40515;SDS011;26216;53.724;9.898;2023-07-31T04:01:03;1.95;;;1.10;;
40515;SDS011;26216;53.724;9.898;2023-07-31T04:03:29;7.22;;;1.30;;
40515;SDS011;26216;53.724;9.898;2023-07-31T04:05:55;1.60;;;1.00;;
40515;SDS011;26216;53.724;9.898;2023-07-31T04:08:21;3.55;;;1.42;;
40515;SDS011;26216;53.724;9.898;2023-07-31T04:10:47;2.50;;;1.40;;
40515;SDS011;26216;53.724;9.898;2023-07-31T04:13:14;2.13;;;1.42;;
40515;SDS011;26216;53.724;9.898;2023-07-31T04:15:40;2.55;;;1.45;;
40515;SDS011;26216;53.724;9.898;2023-07-31T04:18:06;1.65;;;1.13;;
40515;SDS011;26216;53.724;9.898;2023-07-31T04:20:32;2.17;;;0.98;;
40515;SDS011;26216;53.724;9.898;2023-07-31T04:22:58;2.28;;;1.20;;
40515;SDS011;26216;53.724;9.898;2023-07-31T04:25:25;2.92;;;1.40;;
40515;SDS011;26216;53.724;9.898;2023-07-31T04:27:54;2.05;;;1.33;;
40515;SDS011;26216;53.724;9.898;2023-07-31T04:30:20;4.47;;;1.55;;
40515;SDS011;26216;53.724;9.898;2023-07-31T04:32:46;1.92;;;1.17;;
40515;SDS011;26216;53.724;9.898;2023-07-31T04:35:12;1.95;;;1.42;;
40515;SDS011;26216;53.724;9.898;2023-07-31T04:37:38;2.78;;;1.67;;
40515;SDS011;26216;53.724;9.898;2023-07-31T04:40:04;2.75;;;1.70;;
40515;SDS011;26216;53.724;9.898;2023-07-31T04:42:31;2.22;;;1.15;;
40515;SDS011;26216;53.724;9.898;2023-07-31T04:44:58;2.47;;;1.33;;
40515;SDS011;26216;53.724;9.898;2023-07-31T04:47:24;3.08;;;1.67;;
40515;SDS011;26216;53.724;9.898;2023-07-31T04:49:50;4.50;;;1.52;;
40515;SDS011;26216;53.724;9.898;2023-07-31T04:52:17;3.30;;;1.55;;
40515;SDS011;26216;53.724;9.898;2023-07-31T04:54:43;2.03;;;1.50;;
40515;SDS011;26216;53.724;9.898;2023-07-31T04:57:09;2.67;;;1.50;;
40515;SDS011;26216;53.724;9.898;2023-07-31T04:59:34;2.17;;;1.40;;
40515;SDS011;26216;53.724;9.898;2023-07-31T05:02:00;2.58;;;1.45;;
40515;SDS011;26216;53.724;9.898;2023-07-31T05:04:26;2.15;;;1.33;;
40515;SDS011;26216;53.724;9.898;2023-07-31T05:06:52;2.30;;;1.13;;
40515;SDS011;26216;53.724;9.898;2023-07-31T05:09:18;2.35;;;1.40;;
40515;SDS011;26216;53.724;9.898;2023-07-31T05:11:44;2.30;;;1.30;;
40515;SDS011;26216;53.724;9.898;2023-07-31T05:14:10;2.13;;;1.20;;
40515;SDS011;26216;53.724;9.898;2023-07-31T05:16:36;1.45;;;1.10;;
40515;SDS011;26216;53.724;9.898;2023-07-31T05:19:02;2.65;;;1.40;;
40515;SDS011;26216;53.724;9.898;2023-07-31T05:21:28;2.33;;;1.02;;
40515;SDS011;26216;53.724;9.898;2023-07-31T05:23:54;1.33;;;1.10;;
40515;SDS011;26216;53.724;9.898;2023-07-31T05:26:20;1.52;;;1.10;;
40515;SDS011;26216;53.724;9.898;2023-07-31T05:28:46;2.42;;;1.25;;
40515;SDS011;26216;53.724;9.898;2023-07-31T05:31:12;1.20;;;1.02;;
40515;SDS011;26216;53.724;9.898;2023-07-31T05:33:38;1.77;;;1.10;;
40515;SDS011;26216;53.724;9.898;2023-07-31T05:36:04;1.35;;;1.17;;
40515;SDS011;26216;53.724;9.898;2023-07-31T05:38:30;2.20;;;1.55;;
40515;SDS011;26216;53.724;9.898;2023-07-31T05:40:56;1.67;;;1.30;;
40515;SDS011;26216;53.724;9.898;2023-07-31T05:43:22;3.10;;;1.20;;
40515;SDS011;26216;53.724;9.898;2023-07-31T05:45:48;1.08;;;0.95;;
40515;SDS011;26216;53.724;9.898;2023-07-31T05:48:14;1.52;;;1.00;;
40515;SDS011;26216;53.724;9.898;2023-07-31T05:50:40;1.75;;;1.15;;
40515;SDS011;26216;53.724;9.898;2023-07-31T05:53:07;1.83;;;1.00;;
40515;SDS011;26216;53.724;9.898;2023-07-31T05:55:33;1.13;;;1.00;;
40515;SDS011;26216;53.724;9.898;2023-07-31T05:57:59;1.30;;;0.93;;
40515;SDS011;26216;53.724;9.898;2023-07-31T06:00:45;1.10;;;1.00;;
40515;SDS011;26216;53.724;9.898;2023-07-31T06:03:14;1.13;;;0.90;;
40515;SDS011;26216;53.724;9.898;2023-07-31T06:05:41;1.20;;;0.90;;
40515;SDS011;26216;53.724;9.898;2023-07-31T06:08:06;1.55;;;0.90;;
40515;SDS011;26216;53.724;9.898;2023-07-31T06:10:32;1.58;;;1.05;;
40515;SDS011;26216;53.724;9.898;2023-07-31T06:13:00;1.15;;;0.90;;
40515;SDS011;26216;53.724;9.898;2023-07-31T06:15:25;1.23;;;0.90;;
40515;SDS011;26216;53.724;9.898;2023-07-31T06:17:52;1.70;;;1.10;;
40515;SDS011;26216;53.724;9.898;2023-07-31T06:20:18;1.05;;;0.85;;
40515;SDS011;26216;53.724;9.898;2023-07-31T06:22:44;1.20;;;0.90;;
40515;SDS011;26216;53.724;9.898;2023-07-31T06:25:10;1.17;;;0.90;;
40515;SDS011;26216;53.724;9.898;2023-07-31T06:27:37;0.90;;;0.80;;
40515;SDS011;26216;53.724;9.898;2023-07-31T06:30:03;1.10;;;0.98;;
40515;SDS011;26216;53.724;9.898;2023-07-31T06:32:30;1.00;;;0.90;;
40515;SDS011;26216;53.724;9.898;2023-07-31T06:34:56;1.80;;;0.90;;
40515;SDS011;26216;53.724;9.898;2023-07-31T06:37:21;0.60;;;0.60;;
40515;SDS011;26216;53.724;9.898;2023-07-31T06:39:47;1.05;;;0.80;;
40515;SDS011;26216;53.724;9.898;2023-07-31T06:42:13;1.20;;;0.90;;
40515;SDS011;26216;53.724;9.898;2023-07-31T06:44:39;0.73;;;0.60;;
40515;SDS011;26216;53.724;9.898;2023-07-31T06:47:05;0.60;;;0.60;;
40515;SDS011;26216;53.724;9.898;2023-07-31T06:49:34;0.93;;;0.80;;
40515;SDS011;26216;53.724;9.898;2023-07-31T06:52:00;1.08;;;0.77;;
40515;SDS011;26216;53.724;9.898;2023-07-31T06:54:25;0.57;;;0.57;;
40515;SDS011;26216;53.724;9.898;2023-07-31T06:56:51;0.52;;;0.50;;
40515;SDS011;26216;53.724;9.898;2023-07-31T06:59:17;0.70;;;0.70;;
40515;SDS011;26216;53.724;9.898;2023-07-31T07:01:43;1.00;;;0.80;;
40515;SDS011;26216;53.724;9.898;2023-07-31T07:04:09;1.38;;;0.70;;
40515;SDS011;26216;53.724;9.898;2023-07-31T07:06:35;0.60;;;0.60;;
40515;SDS011;26216;53.724;9.898;2023-07-31T07:09:01;1.30;;;0.90;;
40515;SDS011;26216;53.724;9.898;2023-07-31T07:11:28;0.80;;;0.70;;
40515;SDS011;26216;53.724;9.898;2023-07-31T07:13:54;1.52;;;0.80;;
40515;SDS011;26216;53.724;9.898;2023-07-31T07:16:20;0.60;;;0.60;;
40515;SDS011;26216;53.724;9.898;2023-07-31T07:18:46;1.05;;;0.70;;
40515;SDS011;26216;53.724;9.898;2023-07-31T07:21:12;0.93;;;0.82;;
40515;SDS011;26216;53.724;9.898;2023-07-31T07:23:41;0.70;;;0.70;;
40515;SDS011;26216;53.724;9.898;2023-07-31T07:26:07;0.95;;;0.60;;
40515;SDS011;26216;53.724;9.898;2023-07-31T07:28:33;1.10;;;0.90;;
40515;SDS011;26216;53.724;9.898;2023-07-31T07:30:59;0.85;;;0.85;;
40515;SDS011;26216;53.724;9.898;2023-07-31T07:33:25;1.75;;;0.80;;
40515;SDS011;26216;53.724;9.898;2023-07-31T07:35:51;0.80;;;0.80;;
40515;SDS011;26216;53.724;9.898;2023-07-31T07:38:17;1.15;;;0.88;;
40515;SDS011;26216;53.724;9.898;2023-07-31T07:40:44;1.00;;;0.90;;
40515;SDS011;26216;53.724;9.898;2023-07-31T07:43:12;0.80;;;0.80;;
40515;SDS011;26216;53.724;9.898;2023-07-31T07:45:38;1.45;;;0.70;;
40515;SDS011;26216;53.724;9.898;2023-07-31T07:48:04;1.63;;;0.80;;
40515;SDS011;26216;53.724;9.898;2023-07-31T07:50:29;0.85;;;0.73;;
40515;SDS011;26216;53.724;9.898;2023-07-31T07:52:56;0.80;;;0.73;;
40515;SDS011;26216;53.724;9.898;2023-07-31T07:55:22;0.98;;;0.80;;
40515;SDS011;26216;53.724;9.898;2023-07-31T07:57:48;0.80;;;0.75;;
40515;SDS011;26216;53.724;9.898;2023-07-31T08:00:15;0.75;;;0.70;;
40515;SDS011;26216;53.724;9.898;2023-07-31T08:02:42;1.50;;;0.80;;
40515;SDS011;26216;53.724;9.898;2023-07-31T08:05:09;0.80;;;0.80;;
40515;SDS011;26216;53.724;9.898;2023-07-31T08:07:35;0.98;;;0.70;;
40515;SDS011;26216;53.724;9.898;2023-07-31T08:10:01;0.85;;;0.75;;
40515;SDS011;26216;53.724;9.898;2023-07-31T08:12:27;1.25;;;1.13;;
40515;SDS011;26216;53.724;9.898;2023-07-31T08:14:53;1.63;;;0.90;;
40515;SDS011;26216;53.724;9.898;2023-07-31T08:17:19;0.77;;;0.77;;
40515;SDS011;26216;53.724;9.898;2023-07-31T08:19:45;1.10;;;0.90;;
40515;SDS011;26216;53.724;9.898;2023-07-31T08:22:11;0.98;;;0.93;;
40515;SDS011;26216;53.724;9.898;2023-07-31T08:24:37;1.25;;;1.05;;
40515;SDS011;26216;53.724;9.898;2023-07-31T08:27:03;0.70;;;0.70;;
40515;SDS011;26216;53.724;9.898;2023-07-31T08:29:31;1.45;;;0.98;;
40515;SDS011;26216;53.724;9.898;2023-07-31T08:31:57;2.17;;;1.05;;
40515;SDS011;26216;53.724;9.898;2023-07-31T08:34:23;0.95;;;0.85;;
40515;SDS011;26216;53.724;9.898;2023-07-31T08:36:50;2.25;;;0.77;;
40515;SDS011;26216;53.724;9.898;2023-07-31T08:39:16;0.70;;;0.70;;
40515;SDS011;26216;53.724;9.898;2023-07-31T08:41:42;0.73;;;0.60;;
40515;SDS011;26216;53.724;9.898;2023-07-31T08:44:08;0.95;;;0.82;;
40515;SDS011;26216;53.724;9.898;2023-07-31T08:46:37;0.70;;;0.70;;
40515;SDS011;26216;53.724;9.898;2023-07-31T08:49:04;0.70;;;0.70;;
40515;SDS011;26216;53.724;9.898;2023-07-31T08:51:34;0.80;;;0.63;;
40515;SDS011;26216;53.724;9.898;2023-07-31T08:54:01;0.80;;;0.80;;
40515;SDS011;26216;53.724;9.898;2023-07-31T08:56:29;0.57;;;0.57;;
40515;SDS011;26216;53.724;9.898;2023-07-31T08:58:57;0.85;;;0.70;;
40515;SDS011;26216;53.724;9.898;2023-07-31T09:01:28;0.63;;;0.60;;
40515;SDS011;26216;53.724;9.898;2023-07-31T09:03:57;0.90;;;0.68;;
40515;SDS011;26216;53.724;9.898;2023-07-31T09:06:27;0.65;;;0.65;;
40515;SDS011;26216;53.724;9.898;2023-07-31T09:08:55;1.33;;;0.70;;
40515;SDS011;26216;53.724;9.898;2023-07-31T09:11:23;0.60;;;0.57;;
40515;SDS011;26216;53.724;9.898;2023-07-31T09:13:51;0.55;;;0.55;;
40515;SDS011;26216;53.724;9.898;2023-07-31T09:16:26;0.63;;;0.63;;
40515;SDS011;26216;53.724;9.898;2023-07-31T09:19:15;0.70;;;0.65;;
40515;SDS011;26216;53.724;9.898;2023-07-31T09:22:14;0.40;;;0.40;;
40515;SDS011;26216;53.724;9.898;2023-07-31T09:24:40;0.75;;;0.75;;
40515;SDS011;26216;53.724;9.898;2023-07-31T09:27:07;0.50;;;0.50;;
40515;SDS011;26216;53.724;9.898;2023-07-31T09:29:33;0.40;;;0.40;;
40515;SDS011;26216;53.724;9.898;2023-07-31T09:31:59;0.47;;;0.40;;
40515;SDS011;26216;53.724;9.898;2023-07-31T09:34:36;1.45;;;0.60;;
40515;SDS011;26216;53.724;9.898;2023-07-31T09:37:05;0.40;;;0.40;;
40515;SDS011;26216;53.724;9.898;2023-07-31T09:39:31;0.82;;;0.60;;
40515;SDS011;26216;53.724;9.898;2023-07-31T09:41:57;0.50;;;0.50;;
40515;SDS011;26216;53.724;9.898;2023-07-31T09:44:40;0.50;;;0.50;;
40515;SDS011;26216;53.724;9.898;2023-07-31T09:47:06;0.50;;;0.43;;
40515;SDS011;26216;53.724;9.898;2023-07-31T09:49:45;0.82;;;0.50;;
40515;SDS011;26216;53.724;9.898;2023-07-31T09:52:11;0.65;;;0.47;;
40515;SDS011;26216;53.724;9.898;2023-07-31T09:54:39;0.52;;;0.47;;
40515;SDS011;26216;53.724;9.898;2023-07-31T09:57:05;0.50;;;0.50;;
40515;SDS011;26216;53.724;9.898;2023-07-31T09:59:34;0.43;;;0.43;;
40515;SDS011;26216;53.724;9.898;2023-07-31T10:04:55;1.00;;;0.60;;
40515;SDS011;26216;53.724;9.898;2023-07-31T10:07:23;0.50;;;0.50;;
40515;SDS011;26216;53.724;9.898;2023-07-31T10:09:51;0.65;;;0.50;;
40515;SDS011;26216;53.724;9.898;2023-07-31T10:12:38;1.15;;;0.50;;
40515;SDS011;26216;53.724;9.898;2023-07-31T10:15:05;0.60;;;0.50;;
40515;SDS011;26216;53.724;9.898;2023-07-31T10:17:53;0.38;;;0.38;;
40515;SDS011;26216;53.724;9.898;2023-07-31T10:20:40;1.10;;;0.47;;
40515;SDS011;26216;53.724;9.898;2023-07-31T10:23:07;0.50;;;0.50;;
40515;SDS011;26216;53.724;9.898;2023-07-31T10:25:53;0.90;;;0.60;;
40515;SDS011;26216;53.724;9.898;2023-07-31T10:28:40;0.50;;;0.40;;
40515;SDS011;26216;53.724;9.898;2023-07-31T10:31:27;0.57;;;0.43;;
40515;SDS011;26216;53.724;9.898;2023-07-31T10:34:14;1.02;;;0.60;;
40515;SDS011;26216;53.724;9.898;2023-07-31T10:40:04;0.55;;;0.55;;
40515;SDS011;26216;53.724;9.898;2023-07-31T10:43:00;0.75;;;0.52;;
40515;SDS011;26216;53.724;9.898;2023-07-31T10:45:46;0.50;;;0.50;;
40515;SDS011;26216;53.724;9.898;2023-07-31T10:48:34;0.50;;;0.50;;
40515;SDS011;26216;53.724;9.898;2023-07-31T10:51:02;0.70;;;0.60;;
40515;SDS011;26216;53.724;9.898;2023-07-31T10:53:36;1.00;;;0.50;;
40515;SDS011;26216;53.724;9.898;2023-07-31T10:56:03;1.42;;;0.73;;
40515;SDS011;26216;53.724;9.898;2023-07-31T10:58:33;0.82;;;0.38;;
40515;SDS011;26216;53.724;9.898;2023-07-31T11:01:03;0.35;;;0.35;;
40515;SDS011;26216;53.724;9.898;2023-07-31T11:03:40;1.00;;;0.50;;
40515;SDS011;26216;53.724;9.898;2023-07-31T11:06:07;0.95;;;0.60;;
40515;SDS011;26216;53.724;9.898;2023-07-31T11:08:34;0.50;;;0.50;;
40515;SDS011;26216;53.724;9.898;2023-07-31T11:11:07;0.38;;;0.30;;
40515;SDS011;26216;53.724;9.898;2023-07-31T11:13:42;0.93;;;0.30;;
40515;SDS011;26216;53.724;9.898;2023-07-31T11:16:11;1.02;;;0.50;;
40515;SDS011;26216;53.724;9.898;2023-07-31T11:18:44;0.35;;;0.35;;
40515;SDS011;26216;53.724;9.898;2023-07-31T11:21:16;0.25;;;0.25;;
40515;SDS011;26216;53.724;9.898;2023-07-31T11:23:47;0.52;;;0.40;;
40515;SDS011;26216;53.724;9.898;2023-07-31T11:26:14;0.38;;;0.35;;
40515;SDS011;26216;53.724;9.898;2023-07-31T11:28:40;0.43;;;0.32;;
40515;SDS011;26216;53.724;9.898;2023-07-31T11:31:09;0.40;;;0.35;;
40515;SDS011;26216;53.724;9.898;2023-07-31T11:33:35;0.90;;;0.40;;
40515;SDS011;26216;53.724;9.898;2023-07-31T11:36:01;0.30;;;0.30;;
40515;SDS011;26216;53.724;9.898;2023-07-31T11:38:31;0.55;;;0.40;;
40515;SDS011;26216;53.724;9.898;2023-07-31T11:40:59;0.40;;;0.40;;
40515;SDS011;26216;53.724;9.898;2023-07-31T11:45:59;0.57;;;0.40;;
40515;SDS011;26216;53.724;9.898;2023-07-31T11:48:29;0.70;;;0.50;;
40515;SDS011;26216;53.724;9.898;2023-07-31T11:50:59;0.47;;;0.30;;
40515;SDS011;26216;53.724;9.898;2023-07-31T11:56:05;0.63;;;0.52;;
40515;SDS011;26216;53.724;9.898;2023-07-31T11:58:33;0.38;;;0.20;;
40515;SDS011;26216;53.724;9.898;2023-07-31T12:01:00;0.10;;;0.10;;
40515;SDS011;26216;53.724;9.898;2023-07-31T12:03:26;0.60;;;0.40;;
40515;SDS011;26216;53.724;9.898;2023-07-31T12:05:53;0.63;;;0.45;;
40515;SDS011;26216;53.724;9.898;2023-07-31T12:08:23;0.50;;;0.50;;
40515;SDS011;26216;53.724;9.898;2023-07-31T12:10:50;0.47;;;0.35;;
40515;SDS011;26216;53.724;9.898;2023-07-31T12:13:23;0.40;;;0.40;;
40515;SDS011;26216;53.724;9.898;2023-07-31T12:15:55;0.45;;;0.45;;
40515;SDS011;26216;53.724;9.898;2023-07-31T12:18:23;0.35;;;0.35;;
40515;SDS011;26216;53.724;9.898;2023-07-31T12:20:54;0.52;;;0.40;;
40515;SDS011;26216;53.724;9.898;2023-07-31T12:26:01;1.23;;;0.70;;
40515;SDS011;26216;53.724;9.898;2023-07-31T12:28:28;0.60;;;0.57;;
40515;SDS011;26216;53.724;9.898;2023-07-31T12:30:58;0.50;;;0.40;;
40515;SDS011;26216;53.724;9.898;2023-07-31T12:33:29;0.82;;;0.60;;
40515;SDS011;26216;53.724;9.898;2023-07-31T12:35:57;0.63;;;0.50;;
40515;SDS011;26216;53.724;9.898;2023-07-31T12:38:23;0.40;;;0.40;;
40515;SDS011;26216;53.724;9.898;2023-07-31T12:40:49;0.43;;;0.40;;
40515;SDS011;26216;53.724;9.898;2023-07-31T12:43:15;1.10;;;0.43;;
40515;SDS011;26216;53.724;9.898;2023-07-31T12:45:41;0.40;;;0.40;;
40515;SDS011;26216;53.724;9.898;2023-07-31T12:48:07;0.65;;;0.50;;
40515;SDS011;26216;53.724;9.898;2023-07-31T12:50:33;0.70;;;0.50;;
40515;SDS011;26216;53.724;9.898;2023-07-31T12:53:02;0.40;;;0.40;;
40515;SDS011;26216;53.724;9.898;2023-07-31T12:55:31;0.63;;;0.50;;
40515;SDS011;26216;53.724;9.898;2023-07-31T12:57:59;0.68;;;0.50;;
40515;SDS011;26216;53.724;9.898;2023-07-31T13:00:25;0.40;;;0.40;;
40515;SDS011;26216;53.724;9.898;2023-07-31T13:02:52;0.55;;;0.40;;
40515;SDS011;26216;53.724;9.898;2023-07-31T13:05:18;1.23;;;0.50;;
40515;SDS011;26216;53.724;9.898;2023-07-31T13:07:45;0.40;;;0.40;;
40515;SDS011;26216;53.724;9.898;2023-07-31T13:10:11;0.47;;;0.40;;
40515;SDS011;26216;53.724;9.898;2023-07-31T13:12:37;0.77;;;0.40;;
40515;SDS011;26216;53.724;9.898;2023-07-31T13:15:04;0.45;;;0.40;;
40515;SDS011;26216;53.724;9.898;2023-07-31T13:17:30;0.45;;;0.32;;
40515;SDS011;26216;53.724;9.898;2023-07-31T13:19:56;0.45;;;0.45;;
40515;SDS011;26216;53.724;9.898;2023-07-31T13:22:22;0.60;;;0.50;;
40515;SDS011;26216;53.724;9.898;2023-07-31T13:24:48;0.60;;;0.35;;
40515;SDS011;26216;53.724;9.898;2023-07-31T13:27:14;0.40;;;0.40;;
40515;SDS011;26216;53.724;9.898;2023-07-31T13:29:45;0.95;;;0.47;;
40515;SDS011;26216;53.724;9.898;2023-07-31T13:32:10;0.85;;;0.60;;
40515;SDS011;26216;53.724;9.898;2023-07-31T13:34:36;0.93;;;0.52;;
40515;SDS011;26216;53.724;9.898;2023-07-31T13:37:04;1.00;;;0.57;;
40515;SDS011;26216;53.724;9.898;2023-07-31T13:39:31;0.75;;;0.68;;
40515;SDS011;26216;53.724;9.898;2023-07-31T13:41:58;0.63;;;0.50;;
40515;SDS011;26216;53.724;9.898;2023-07-31T13:44:24;0.70;;;0.50;;
40515;SDS011;26216;53.724;9.898;2023-07-31T13:46:51;0.40;;;0.40;;
40515;SDS011;26216;53.724;9.898;2023-07-31T13:49:16;0.55;;;0.47;;
40515;SDS011;26216;53.724;9.898;2023-07-31T13:51:42;0.40;;;0.40;;
40515;SDS011;26216;53.724;9.898;2023-07-31T13:54:08;0.60;;;0.47;;
40515;SDS011;26216;53.724;9.898;2023-07-31T13:56:36;0.65;;;0.40;;
40515;SDS011;26216;53.724;9.898;2023-07-31T13:59:02;0.68;;;0.32;;
40515;SDS011;26216;53.724;9.898;2023-07-31T14:01:28;0.73;;;0.55;;
40515;SDS011;26216;53.724;9.898;2023-07-31T14:03:54;0.52;;;0.40;;
40515;SDS011;26216;53.724;9.898;2023-07-31T14:06:20;0.98;;;0.55;;
40515;SDS011;26216;53.724;9.898;2023-07-31T14:08:47;0.45;;;0.40;;
40515;SDS011;26216;53.724;9.898;2023-07-31T14:11:12;1.25;;;0.50;;
40515;SDS011;26216;53.724;9.898;2023-07-31T14:13:38;1.05;;;0.50;;
40515;SDS011;26216;53.724;9.898;2023-07-31T14:16:04;0.40;;;0.38;;
40515;SDS011;26216;53.724;9.898;2023-07-31T14:18:30;0.95;;;0.60;;
40515;SDS011;26216;53.724;9.898;2023-07-31T14:20:55;0.52;;;0.47;;
40515;SDS011;26216;53.724;9.898;2023-07-31T14:23:21;0.77;;;0.55;;
40515;SDS011;26216;53.724;9.898;2023-07-31T14:25:47;0.77;;;0.60;;
40515;SDS011;26216;53.724;9.898;2023-07-31T14:28:13;0.70;;;0.57;;
40515;SDS011;26216;53.724;9.898;2023-07-31T14:30:39;0.50;;;0.47;;
40515;SDS011;26216;53.724;9.898;2023-07-31T14:33:05;0.60;;;0.50;;
40515;SDS011;26216;53.724;9.898;2023-07-31T14:35:31;0.43;;;0.40;;
40515;SDS011;26216;53.724;9.898;2023-07-31T14:37:57;0.75;;;0.60;;
40515;SDS011;26216;53.724;9.898;2023-07-31T14:40:23;0.75;;;0.70;;
40515;SDS011;26216;53.724;9.898;2023-07-31T14:42:49;0.40;;;0.40;;
40515;SDS011;26216;53.724;9.898;2023-07-31T14:45:15;1.88;;;0.47;;
40515;SDS011;26216;53.724;9.898;2023-07-31T14:47:40;0.75;;;0.40;;
40515;SDS011;26216;53.724;9.898;2023-07-31T14:50:06;0.60;;;0.50;;
40515;SDS011;26216;53.724;9.898;2023-07-31T14:52:32;0.45;;;0.38;;
40515;SDS011;26216;53.724;9.898;2023-07-31T14:54:58;0.60;;;0.40;;
40515;SDS011;26216;53.724;9.898;2023-07-31T14:57:24;0.40;;;0.28;;
40515;SDS011;26216;53.724;9.898;2023-07-31T14:59:50;1.10;;;0.60;;
40515;SDS011;26216;53.724;9.898;2023-07-31T15:02:16;0.63;;;0.50;;
40515;SDS011;26216;53.724;9.898;2023-07-31T15:04:41;0.52;;;0.45;;
40515;SDS011;26216;53.724;9.898;2023-07-31T15:07:07;0.50;;;0.40;;
40515;SDS011;26216;53.724;9.898;2023-07-31T15:09:33;0.40;;;0.40;;
40515;SDS011;26216;53.724;9.898;2023-07-31T15:11:59;0.50;;;0.30;;
40515;SDS011;26216;53.724;9.898;2023-07-31T15:14:25;0.45;;;0.40;;
40515;SDS011;26216;53.724;9.898;2023-07-31T15:16:53;0.30;;;0.30;;
40515;SDS011;26216;53.724;9.898;2023-07-31T15:19:18;0.30;;;0.30;;